createdAt,value
2023-04-18T00:00:25.301Z,98232.91
2023-04-18T00:02:55.088Z,98227.06
2023-04-18T00:05:23.118Z,98225.00
2023-04-18T00:07:51.468Z,98237.16
2023-04-18T00:10:19.330Z,98226.47
2023-04-18T00:12:47.329Z,98226.47
2023-04-18T00:15:15.001Z,98230.03
2023-04-18T00:17:42.702Z,98231.56
2023-04-18T00:20:11.303Z,98232.41
2023-04-18T00:22:43.881Z,98234.38
2023-04-18T00:25:11.708Z,98236.16
2023-04-18T00:27:39.632Z,98231.69
2023-04-18T00:30:09.022Z,98228.88
2023-04-18T00:32:38.945Z,98230.78
2023-04-18T00:35:07.273Z,98231.59
2023-04-18T00:37:35.099Z,98227.19
2023-04-18T00:40:02.576Z,98228.78
2023-04-18T00:42:30.029Z,98232.41
2023-04-18T00:44:57.636Z,98233.13
2023-04-18T00:47:25.819Z,98230.22
2023-04-18T00:49:54.441Z,98228.09
2023-04-18T00:52:22.082Z,98229.84
2023-04-18T00:54:49.957Z,98233.91
2023-04-18T00:57:17.839Z,98229.25
2023-04-18T00:59:47.286Z,98227.00
2023-04-18T01:02:14.823Z,98229.84
2023-04-18T01:04:45.533Z,98228.44
2023-04-18T01:07:13.142Z,98231.66
2023-04-18T01:09:41.165Z,98229.06
2023-04-18T01:12:08.682Z,98232.38
2023-04-18T01:14:36.270Z,98228.63
2023-04-18T01:17:04.091Z,98220.34
2023-04-18T01:19:31.783Z,98224.13
2023-04-18T01:21:59.713Z,98225.75
2023-04-18T01:24:29.806Z,98228.97
2023-04-18T01:26:57.573Z,98213.59
2023-04-18T01:29:26.116Z,98213.78
2023-04-18T01:31:53.827Z,98211.09
2023-04-18T01:34:21.312Z,98217.13
2023-04-18T01:36:48.880Z,98210.44
2023-04-18T01:39:18.346Z,98210.91
2023-04-18T01:41:46.340Z,98219.34
2023-04-18T01:44:14.147Z,98217.28
2023-04-18T01:46:41.950Z,98223.47
2023-04-18T01:49:10.603Z,98214.03
2023-04-18T01:51:39.016Z,98222.41
2023-04-18T01:54:06.642Z,98218.69
2023-04-18T01:56:34.253Z,98226.00
2023-04-18T01:59:03.088Z,98222.31
2023-04-18T02:01:30.590Z,98220.19
2023-04-18T02:03:59.723Z,98220.50
2023-04-18T02:06:27.297Z,98219.03
2023-04-18T02:08:54.847Z,98222.97
2023-04-18T02:11:25.565Z,98218.91
2023-04-18T02:13:53.039Z,98217.84
2023-04-18T02:16:20.706Z,98216.22
2023-04-18T02:18:52.462Z,98218.28
2023-04-18T02:21:20.014Z,98218.81
2023-04-18T02:23:49.698Z,98225.13
2023-04-18T02:26:17.212Z,98224.69
2023-04-18T02:28:44.715Z,98225.59
2023-04-18T02:31:14.890Z,98233.13
2023-04-18T02:33:44.540Z,98231.06
2023-04-18T02:36:15.252Z,98225.75
2023-04-18T02:38:43.393Z,98230.75
2023-04-18T02:41:15.122Z,98232.22
2023-04-18T02:43:42.849Z,98231.28
2023-04-18T02:46:10.797Z,98226.72
2023-04-18T02:48:38.537Z,98225.84
2023-04-18T02:51:08.913Z,98229.53
2023-04-18T02:53:38.589Z,98225.13
2023-04-18T02:56:07.109Z,98231.94
2023-04-18T02:58:54.382Z,98228.97
2023-04-18T03:01:47.699Z,98230.94
2023-04-18T03:04:18.585Z,98231.47
2023-04-18T03:07:04.288Z,98230.34
2023-04-18T03:09:35.954Z,98228.25
2023-04-18T03:12:08.856Z,98232.28
2023-04-18T03:14:38.060Z,98238.16
2023-04-18T03:17:06.287Z,98240.03
2023-04-18T03:19:39.872Z,98240.03
2023-04-18T03:22:10.668Z,98229.63
2023-04-18T03:24:45.405Z,98231.41
2023-04-18T03:27:13.690Z,98240.94
2023-04-18T03:29:43.132Z,98237.34
2023-04-18T03:32:11.549Z,98241.28
2023-04-18T03:34:39.603Z,98244.44
2023-04-18T03:37:08.721Z,98249.22
2023-04-18T03:39:41.965Z,98246.97
2023-04-18T03:42:10.176Z,98250.28
2023-04-18T03:44:37.789Z,98248.47
2023-04-18T03:47:06.004Z,98255.41
2023-04-18T03:49:36.395Z,98253.34
2023-04-18T03:52:04.739Z,98257.06
2023-04-18T03:54:32.257Z,98254.31
2023-04-18T03:56:59.846Z,98258.91
2023-04-18T03:59:30.290Z,98258.28
2023-04-18T04:01:57.845Z,98264.81
2023-04-18T04:04:26.201Z,98266.00
2023-04-18T04:06:54.086Z,98270.84
2023-04-18T04:09:21.510Z,98270.13
2023-04-18T04:11:50.970Z,98275.16
2023-04-18T04:14:18.536Z,98276.44
2023-04-18T04:16:47.067Z,98278.03
2023-04-18T04:19:17.160Z,98271.97
2023-04-18T04:22:07.807Z,98283.25
2023-04-18T04:24:38.555Z,98283.88
2023-04-18T04:27:08.092Z,98284.53
2023-04-18T04:29:39.216Z,98282.81
2023-04-18T04:32:08.176Z,98277.31
2023-04-18T04:34:41.419Z,98285.00
2023-04-18T04:37:14.021Z,98286.13
2023-04-18T04:39:52.889Z,98291.81
2023-04-18T04:42:41.140Z,98294.91
2023-04-18T04:45:15.365Z,98282.66
2023-04-18T04:47:42.932Z,98294.09
2023-04-18T04:50:14.819Z,98296.25
2023-04-18T04:52:42.767Z,98293.94
2023-04-18T04:55:11.059Z,98292.63
2023-04-18T04:57:38.599Z,98300.22
2023-04-18T05:00:20.998Z,98303.91
2023-04-18T05:02:50.142Z,98305.97
2023-04-18T05:05:17.955Z,98306.75
2023-04-18T05:07:45.644Z,98307.03
2023-04-18T05:10:13.227Z,98308.31
2023-04-18T05:12:40.682Z,98316.06
2023-04-18T05:15:08.794Z,98307.59
2023-04-18T05:17:36.457Z,98310.06
2023-04-18T05:20:05.416Z,98314.03
2023-04-18T05:22:33.080Z,98311.00
2023-04-18T05:25:00.982Z,98319.19
2023-04-18T05:27:28.678Z,98327.47
2023-04-18T05:29:56.307Z,98323.88
2023-04-18T05:32:23.844Z,98338.06
2023-04-18T05:34:51.857Z,98330.78
2023-04-18T05:37:19.310Z,98337.44
2023-04-18T05:39:46.841Z,98335.84
2023-04-18T05:42:14.454Z,98346.38
2023-04-18T05:44:41.865Z,98349.41
2023-04-18T05:47:09.372Z,98347.81
2023-04-18T05:49:37.080Z,98343.28
2023-04-18T05:52:04.848Z,98349.91
2023-04-18T05:54:32.386Z,98351.88
2023-04-18T05:57:01.311Z,98347.28
2023-04-18T05:59:30.008Z,98345.00
2023-04-18T06:01:57.541Z,98347.72
2023-04-18T06:04:25.180Z,98352.78
2023-04-18T06:06:52.917Z,98353.53
2023-04-18T06:09:20.375Z,98358.09
2023-04-18T06:11:47.968Z,98361.91
2023-04-18T06:14:16.011Z,98362.44
2023-04-18T06:16:43.761Z,98364.84
2023-04-18T06:19:11.284Z,98366.69
2023-04-18T06:21:39.585Z,98365.75
2023-04-18T06:24:07.382Z,98366.53
2023-04-18T06:26:35.446Z,98362.31
2023-04-18T06:29:03.018Z,98367.28
2023-04-18T06:31:30.668Z,98373.19
2023-04-18T06:33:58.131Z,98368.38
2023-04-18T06:36:27.548Z,98368.38
2023-04-18T06:38:55.201Z,98372.66
2023-04-18T06:41:22.848Z,98374.66
2023-04-18T06:44:02.744Z,98373.28
2023-04-18T06:46:33.128Z,98369.28
2023-04-18T06:49:00.826Z,98376.66
2023-04-18T06:51:29.045Z,98384.50
2023-04-18T06:53:56.517Z,98380.94
2023-04-18T06:56:23.984Z,98378.16
2023-04-18T06:58:52.952Z,98390.84
2023-04-18T07:01:20.896Z,98382.13
2023-04-18T07:03:48.632Z,98389.66
2023-04-18T07:06:16.332Z,98396.78
2023-04-18T07:08:43.798Z,98399.50
2023-04-18T07:11:13.322Z,98391.75
2023-04-18T07:13:40.736Z,98396.03
2023-04-18T07:16:09.805Z,98404.50
2023-04-18T07:18:38.569Z,98394.25
2023-04-18T07:21:09.142Z,98393.09
2023-04-18T07:23:38.148Z,98400.97
2023-04-18T07:26:06.019Z,98403.00
2023-04-18T07:28:33.680Z,98389.88
2023-04-18T07:31:03.144Z,98399.13
2023-04-18T07:33:35.087Z,98397.00
2023-04-18T07:36:03.227Z,98396.81
2023-04-18T07:38:30.776Z,98411.81
2023-04-18T07:41:00.793Z,98410.03
2023-04-18T07:43:28.347Z,98400.31
2023-04-18T07:45:56.009Z,98424.63
2023-04-18T07:48:25.151Z,98410.69
2023-04-18T07:50:53.407Z,98419.13
2023-04-18T07:53:21.075Z,98419.53
2023-04-18T07:55:48.473Z,98424.38
2023-04-18T07:58:16.473Z,98417.28
2023-04-18T08:00:44.908Z,98415.94
2023-04-18T08:03:13.525Z,98425.22
2023-04-18T08:05:42.963Z,98427.50
2023-04-18T08:08:12.865Z,98428.13
2023-04-18T08:10:40.437Z,98423.34
2023-04-18T08:13:08.299Z,98426.13
2023-04-18T08:15:36.030Z,98439.06
2023-04-18T08:18:03.768Z,98434.00
2023-04-18T08:20:31.379Z,98441.13
2023-04-18T08:23:07.653Z,98443.00
2023-04-18T08:25:36.595Z,98442.78
2023-04-18T08:28:04.542Z,98430.00
2023-04-18T08:30:32.031Z,98430.41
2023-04-18T08:33:01.014Z,98438.00
2023-04-18T08:35:28.727Z,98444.16
2023-04-18T08:37:56.284Z,98445.84
2023-04-18T08:40:25.040Z,98451.19
2023-04-18T08:42:54.101Z,98447.34
2023-04-18T08:45:21.578Z,98460.25
2023-04-18T08:47:49.137Z,98454.38
2023-04-18T08:50:17.293Z,98449.53
2023-04-18T08:52:48.845Z,98454.56
2023-04-18T08:55:16.531Z,98454.88
2023-04-18T08:57:44.854Z,98460.69
2023-04-18T09:00:13.325Z,98458.63
2023-04-18T09:02:47.118Z,98454.94
2023-04-18T09:05:20.050Z,98448.63
2023-04-18T09:07:50.041Z,98461.88
2023-04-18T09:10:33.510Z,98458.66
2023-04-18T09:13:04.410Z,98463.81
2023-04-18T09:15:32.555Z,98458.09
2023-04-18T09:18:03.412Z,98453.78
2023-04-18T09:20:35.733Z,98453.50
2023-04-18T09:23:11.017Z,98459.28
2023-04-18T09:25:51.011Z,98458.03
2023-04-18T09:28:27.591Z,98453.75
2023-04-18T09:31:13.452Z,98451.66
2023-04-18T09:33:54.536Z,98460.13
2023-04-18T09:36:29.258Z,98458.06
2023-04-18T09:38:57.347Z,98452.56
2023-04-18T09:41:24.906Z,98451.03
2023-04-18T09:44:15.334Z,98452.22
2023-04-18T09:46:47.086Z,98450.97
2023-04-18T09:49:16.928Z,98444.31
2023-04-18T09:51:46.270Z,98449.63
2023-04-18T09:54:17.072Z,98451.72
2023-04-18T09:56:46.387Z,98438.41
2023-04-18T09:59:21.207Z,98443.22
2023-04-18T10:01:50.872Z,98442.59
2023-04-18T10:04:19.579Z,98440.38
2023-04-18T10:06:47.419Z,98438.19
2023-04-18T10:09:16.155Z,98439.69
2023-04-18T10:11:44.838Z,98428.69
2023-04-18T10:14:16.258Z,98438.75
2023-04-18T10:16:49.275Z,98433.31
2023-04-18T10:19:27.188Z,98432.75
2023-04-18T10:22:00.936Z,98426.69
2023-04-18T10:24:48.037Z,98443.34
2023-04-18T10:27:17.849Z,98427.72
2023-04-18T10:29:54.714Z,98435.06
2023-04-18T10:32:23.787Z,98428.00
2023-04-18T10:34:54.231Z,98414.28
2023-04-18T10:37:21.803Z,98423.47
2023-04-18T10:40:06.502Z,98415.91
2023-04-18T10:42:52.247Z,98415.56
2023-04-18T10:45:24.119Z,98421.03
2023-04-18T10:48:32.746Z,98417.13
2023-04-18T10:51:15.703Z,98408.34
2023-04-18T10:53:56.509Z,98417.28
2023-04-18T10:56:26.102Z,98429.19
2023-04-18T10:58:54.273Z,98432.22
2023-04-18T11:01:32.715Z,98431.84
2023-04-18T11:04:01.613Z,98436.53
2023-04-18T11:06:30.404Z,98437.00
2023-04-18T11:09:13.554Z,98440.63
2023-04-18T11:11:42.634Z,98445.41
2023-04-18T11:14:10.622Z,98442.38
2023-04-18T11:16:38.899Z,98448.25
2023-04-18T11:19:27.324Z,98449.28
2023-04-18T11:22:01.896Z,98449.03
2023-04-18T11:24:29.576Z,98444.81
2023-04-18T11:26:57.098Z,98438.53
2023-04-18T11:29:24.619Z,98450.09
2023-04-18T11:31:56.612Z,98448.84
2023-04-18T11:34:31.099Z,98461.09
2023-04-18T11:36:59.213Z,98458.88
2023-04-18T11:39:26.747Z,98461.19
2023-04-18T11:41:56.462Z,98461.56
2023-04-18T11:44:25.860Z,98464.94
2023-04-18T11:46:54.422Z,98459.81
2023-04-18T11:49:30.366Z,98456.97
2023-04-18T11:51:59.855Z,98455.41
2023-04-18T11:54:44.938Z,98462.38
2023-04-18T11:57:30.116Z,98445.66
2023-04-18T12:00:00.893Z,98451.47
2023-04-18T12:02:46.751Z,98442.00
2023-04-18T12:05:32.835Z,98443.59
2023-04-18T12:08:13.960Z,98441.34
2023-04-18T12:10:52.264Z,98443.19
2023-04-18T12:13:31.312Z,98439.97
2023-04-18T12:16:02.821Z,98438.09
2023-04-18T12:18:31.469Z,98447.63
2023-04-18T12:21:01.850Z,98438.69
2023-04-18T12:23:38.822Z,98440.97
2023-04-18T12:26:11.570Z,98431.66
2023-04-18T12:28:39.250Z,98434.28
2023-04-18T12:31:07.415Z,98434.31
2023-04-18T12:33:38.036Z,98437.78
2023-04-18T12:36:08.176Z,98437.97
2023-04-18T12:38:36.241Z,98428.84
2023-04-18T12:41:03.912Z,98428.63
2023-04-18T12:43:31.385Z,98432.19
2023-04-18T12:45:59.592Z,98430.69
2023-04-18T12:48:26.944Z,98431.09
2023-04-18T12:50:54.330Z,98429.03
2023-04-18T12:53:23.380Z,98434.41
2023-04-18T12:55:51.536Z,98433.53
2023-04-18T12:58:20.630Z,98418.00
2023-04-18T13:00:48.242Z,98415.66
2023-04-18T13:03:16.005Z,98426.44
2023-04-18T13:05:43.839Z,98421.56
2023-04-18T13:08:16.732Z,98419.78
2023-04-18T13:10:48.489Z,98411.25
2023-04-18T13:13:16.113Z,98423.97
2023-04-18T13:15:44.209Z,98417.13
2023-04-18T13:18:11.915Z,98411.88
2023-04-18T13:20:39.453Z,98406.41
2023-04-18T13:23:06.941Z,98415.78
2023-04-18T13:25:34.437Z,98422.94
2023-04-18T13:28:02.040Z,98418.72
2023-04-18T13:30:30.218Z,98416.31
2023-04-18T13:32:58.232Z,98418.75
2023-04-18T13:35:25.706Z,98426.63
2023-04-18T13:37:53.240Z,98419.91
2023-04-18T13:40:20.924Z,98423.50
2023-04-18T13:42:48.420Z,98414.91
2023-04-18T13:45:16.099Z,98422.41
2023-04-18T13:47:43.641Z,98418.50
2023-04-18T13:50:11.430Z,98422.03
2023-04-18T13:52:39.025Z,98417.34
2023-04-18T13:55:07.653Z,98415.34
2023-04-18T13:57:37.338Z,98413.75
2023-04-18T14:00:06.741Z,98411.41
2023-04-18T14:02:39.548Z,98416.03
2023-04-18T14:05:08.044Z,98405.84
2023-04-18T14:07:36.389Z,98410.25
2023-04-18T14:10:04.856Z,98403.47
2023-04-18T14:12:32.348Z,98415.41
2023-04-18T14:14:59.972Z,98417.97
2023-04-18T14:17:27.419Z,98418.34
2023-04-18T14:19:55.257Z,98415.94
2023-04-18T14:22:22.846Z,98410.13
2023-04-18T14:24:52.408Z,98417.59
2023-04-18T14:27:20.457Z,98427.09
2023-04-18T14:29:48.937Z,98420.44
2023-04-18T14:32:17.010Z,98431.69
2023-04-18T14:34:44.573Z,98424.63
2023-04-18T14:37:14.620Z,98423.38
2023-04-18T14:39:43.115Z,98424.13
2023-04-18T14:42:10.929Z,98425.94
2023-04-18T14:44:38.467Z,98422.34
2023-04-18T14:47:06.614Z,98421.97
2023-04-18T14:49:34.259Z,98428.47
2023-04-18T14:52:01.919Z,98425.94
2023-04-18T14:54:31.602Z,98431.16
2023-04-18T14:57:01.549Z,98433.13
2023-04-18T14:59:29.005Z,98446.38
2023-04-18T15:01:57.787Z,98438.13
2023-04-18T15:04:25.582Z,98440.38
2023-04-18T15:06:53.098Z,98434.91
2023-04-18T15:09:20.915Z,98434.69
2023-04-18T15:11:48.356Z,98441.56
2023-04-18T15:14:16.315Z,98447.44
2023-04-18T15:16:44.033Z,98445.41
2023-04-18T15:19:11.474Z,98444.63
2023-04-18T15:21:38.937Z,98440.19
2023-04-18T15:24:07.012Z,98445.44
2023-04-18T15:26:34.628Z,98449.50
2023-04-18T15:29:05.515Z,98448.25
2023-04-18T15:31:33.141Z,98450.50
2023-04-18T15:34:01.260Z,98450.28
2023-04-18T15:36:28.852Z,98451.88
2023-04-18T15:38:56.357Z,98455.91
2023-04-18T15:41:24.061Z,98459.16
2023-04-18T15:43:52.935Z,98453.09
2023-04-18T15:46:22.073Z,98462.00
2023-04-18T15:48:49.653Z,98463.00
2023-04-18T15:51:17.391Z,98473.28
2023-04-18T15:53:44.871Z,98469.66
2023-04-18T15:56:12.703Z,98467.00
2023-04-18T15:58:41.362Z,98470.00
2023-04-18T16:01:09.429Z,98469.19
2023-04-18T16:03:37.328Z,98472.41
2023-04-18T16:06:04.887Z,98476.84
2023-04-18T16:08:33.364Z,98472.81
2023-04-18T16:11:01.108Z,98481.28
2023-04-18T16:13:28.594Z,98485.53
2023-04-18T16:15:56.165Z,98486.31
2023-04-18T16:18:23.843Z,98492.09
2023-04-18T16:20:52.466Z,98499.13
2023-04-18T16:23:20.523Z,98493.84
2023-04-18T16:25:48.591Z,98496.06
2023-04-18T16:28:16.320Z,98504.13
2023-04-18T16:30:45.724Z,98494.78
2023-04-18T16:33:13.522Z,98498.81
2023-04-18T16:35:41.262Z,98501.41
2023-04-18T16:38:08.794Z,98495.16
2023-04-18T16:40:36.380Z,98504.00
2023-04-18T16:43:04.023Z,98504.25
2023-04-18T16:45:31.530Z,98508.81
2023-04-18T16:47:59.167Z,98510.03
2023-04-18T16:50:26.801Z,98509.38
2023-04-18T16:52:54.481Z,98517.22
2023-04-18T16:55:21.969Z,98524.44
2023-04-18T16:57:49.902Z,98520.38
2023-04-18T17:00:17.699Z,98519.97
2023-04-18T17:02:45.407Z,98520.34
2023-04-18T17:05:13.202Z,98521.91
2023-04-18T17:07:40.723Z,98521.09
2023-04-18T17:10:10.108Z,98523.69
2023-04-18T17:12:37.900Z,98524.69
2023-04-18T17:15:07.081Z,98526.31
2023-04-18T17:17:35.461Z,98527.69
2023-04-18T17:20:02.926Z,98531.31
2023-04-18T17:22:30.316Z,98531.31
2023-04-18T17:24:57.736Z,98521.84
2023-04-18T17:27:25.273Z,98528.88
2023-04-18T17:29:52.677Z,98537.66
2023-04-18T17:32:21.154Z,98524.00
2023-04-18T17:34:48.773Z,98535.28
2023-04-18T17:37:17.156Z,98533.22
2023-04-18T17:39:44.687Z,98526.19
2023-04-18T17:42:12.130Z,98532.63
2023-04-18T17:44:39.791Z,98544.28
2023-04-18T17:47:07.556Z,98541.03
2023-04-18T17:49:35.999Z,98542.66
2023-04-18T17:52:04.536Z,98545.22
2023-04-18T17:54:32.925Z,98549.03
2023-04-18T17:57:01.927Z,98550.38
2023-04-18T17:59:29.492Z,98550.03
2023-04-18T18:01:57.585Z,98560.03
2023-04-18T18:04:26.704Z,98560.78
2023-04-18T18:06:58.431Z,98559.09
2023-04-18T18:09:25.945Z,98564.72
2023-04-18T18:11:55.817Z,98568.94
2023-04-18T18:14:23.636Z,98567.94
2023-04-18T18:16:51.209Z,98564.34
2023-04-18T18:19:20.419Z,98565.72
2023-04-18T18:21:47.835Z,98577.81
2023-04-18T18:24:15.335Z,98569.69
2023-04-18T18:26:42.848Z,98571.94
2023-04-18T18:29:11.165Z,98568.25
2023-04-18T18:31:39.171Z,98568.44
2023-04-18T18:34:06.525Z,98571.81
2023-04-18T18:36:35.172Z,98569.00
2023-04-18T18:39:02.679Z,98569.94
2023-04-18T18:41:30.632Z,98575.53
2023-04-18T18:43:58.060Z,98569.47
2023-04-18T18:46:27.716Z,98579.13
2023-04-18T18:48:55.412Z,98578.78
2023-04-18T18:51:23.768Z,98575.16
2023-04-18T18:53:51.143Z,98585.44
2023-04-18T18:56:18.484Z,98581.47
2023-04-18T18:58:46.019Z,98588.31
2023-04-18T19:01:14.682Z,98585.34
2023-04-18T19:03:42.570Z,98592.56
2023-04-18T19:06:10.364Z,98585.91
2023-04-18T19:08:37.836Z,98597.53
2023-04-18T19:11:05.379Z,98601.94
2023-04-18T19:13:32.901Z,98600.94
2023-04-18T19:16:00.507Z,98590.47
2023-04-18T19:18:28.071Z,98597.09
2023-04-18T19:20:56.827Z,98598.47
2023-04-18T19:23:25.302Z,98602.44
2023-04-18T19:25:52.783Z,98601.63
2023-04-18T19:28:20.347Z,98604.03
2023-04-18T19:30:48.350Z,98604.03
2023-04-18T19:33:16.366Z,98606.03
2023-04-18T19:35:43.872Z,98612.63
2023-04-18T19:38:11.406Z,98610.41
2023-04-18T19:40:39.089Z,98612.22
2023-04-18T19:43:06.532Z,98610.94
2023-04-18T19:45:34.108Z,98609.31
2023-04-18T19:48:01.846Z,98601.22
2023-04-18T19:50:29.387Z,98607.44
2023-04-18T19:52:56.892Z,98605.00
2023-04-18T19:55:25.732Z,98607.59
2023-04-18T19:57:59.430Z,98610.22
2023-04-18T20:00:27.760Z,98609.78
2023-04-18T20:02:55.541Z,98607.97
2023-04-18T20:05:23.214Z,98608.16
2023-04-18T20:07:50.867Z,98605.56
2023-04-18T20:10:23.687Z,98604.91
2023-04-18T20:12:51.175Z,98611.69
2023-04-18T20:15:18.744Z,98614.31
2023-04-18T20:17:46.338Z,98606.09
2023-04-18T20:20:13.979Z,98603.03
2023-04-18T20:22:44.814Z,98611.28
2023-04-18T20:25:12.888Z,98613.59
2023-04-18T20:27:40.372Z,98607.94
2023-04-18T20:30:08.662Z,98607.66
2023-04-18T20:32:36.927Z,98610.41
2023-04-18T20:35:04.700Z,98607.53
2023-04-18T20:37:36.635Z,98610.13
2023-04-18T20:40:11.287Z,98606.91
2023-04-18T20:42:39.956Z,98612.13
2023-04-18T20:45:12.839Z,98604.28
2023-04-18T20:47:43.790Z,98607.53
2023-04-18T20:50:11.443Z,98613.75
2023-04-18T20:52:42.569Z,98608.38
2023-04-18T20:55:11.090Z,98616.34
2023-04-18T20:57:38.564Z,98612.59
2023-04-18T21:00:09.992Z,98608.38
2023-04-18T21:02:39.178Z,98616.06
2023-04-18T21:05:07.635Z,98612.03
2023-04-18T21:07:38.091Z,98621.38
2023-04-18T21:10:06.265Z,98610.84
2023-04-18T21:12:33.958Z,98618.66
2023-04-18T21:15:01.526Z,98623.22
2023-04-18T21:17:30.540Z,98619.38
2023-04-18T21:19:58.069Z,98612.69
2023-04-18T21:22:27.256Z,98618.72
2023-04-18T21:24:54.765Z,98614.47
2023-04-18T21:27:22.270Z,98618.28
2023-04-18T21:29:49.747Z,98613.38
2023-04-18T21:32:17.202Z,98614.38
2023-04-18T21:34:44.955Z,98608.50
2023-04-18T21:37:12.416Z,98612.47
2023-04-18T21:39:39.847Z,98608.56
2023-04-18T21:42:07.291Z,98613.78
2023-04-18T21:44:35.246Z,98610.56
2023-04-18T21:47:02.706Z,98606.16
2023-04-18T21:49:30.226Z,98607.28
2023-04-18T21:51:57.665Z,98611.25
2023-04-18T21:54:25.240Z,98604.75
2023-04-18T21:56:52.676Z,98612.75
2023-04-18T21:59:21.030Z,98609.31
2023-04-18T22:01:48.491Z,98611.91
2023-04-18T22:04:16.816Z,98613.28
2023-04-18T22:06:44.636Z,98604.16
2023-04-18T22:09:12.737Z,98611.00
2023-04-18T22:11:40.300Z,98605.31
2023-04-18T22:14:09.949Z,98609.09
2023-04-18T22:16:38.313Z,98606.00
2023-04-18T22:19:06.542Z,98609.59
2023-04-18T22:21:33.946Z,98613.19
2023-04-18T22:24:01.545Z,98617.13
2023-04-18T22:26:29.112Z,98611.28
2023-04-18T22:28:56.574Z,98609.81
2023-04-18T22:31:24.151Z,98610.78
2023-04-18T22:33:51.809Z,98604.31
2023-04-18T22:36:19.309Z,98607.44
2023-04-18T22:38:46.821Z,98601.09
2023-04-18T22:41:14.493Z,98606.19
2023-04-18T22:43:43.869Z,98603.44
2023-04-18T22:46:11.744Z,98599.09
2023-04-18T22:48:39.208Z,98594.38
2023-04-18T22:51:06.851Z,98601.88
2023-04-18T22:53:34.395Z,98588.66
2023-04-18T22:56:01.821Z,98587.34
2023-04-18T22:58:29.754Z,98583.25
2023-04-18T23:00:57.303Z,98577.66
2023-04-18T23:03:24.898Z,98576.34
2023-04-18T23:05:52.604Z,98580.25
2023-04-18T23:08:22.577Z,98569.44
2023-04-18T23:10:50.132Z,98564.22
2023-04-18T23:13:17.594Z,98570.25
2023-04-18T23:15:45.082Z,98567.81
2023-04-18T23:18:12.688Z,98568.34
2023-04-18T23:20:40.355Z,98573.09
2023-04-18T23:23:07.845Z,98566.41
2023-04-18T23:25:35.337Z,98567.59
2023-04-18T23:28:02.949Z,98560.09
